Terminal Aerodrome Forecast
Issued by NWS Cleveland, OH

Home | Current Version | Previous Version | Graphics & Text | Print | Product List | Glossary On
Versions: 1 2 3 4 5 6 7 8 9 10 11 12 13 14 15 16 17 18 19 20 21
000
FTUS41 KCLE 292112 AAB
TAFTOL
TAF AMD
KTOL 292112Z 2921/3018 33004KT P6SM -SHRA BKN070 BKN100
     FM300400 VRB03KT P6SM VCSH BKN040 OVC080
     FM300800 VRB03KT 4SM BR BKN040 OVC080
     FM301400 22005KT 6SM HZ VCSH BKN040=

USA.gov is the U.S. government's official web portal to all federal, state and local government web resources and services.